Tutty Cenac — WDH6395 — position and weather

sailwx.info

Track history (hours):
 
Tides and Currents Weather Stations Pressure Air Temp Water Temp Dewpoint Dewpoint Depression Visibility Wind Speed Wind Dir Waves Ship Positions

Tutty Cenac

Owner: Cenac Marine Services, Houma, LA. More information available from US FCC via Universal Licensing System and Coast Guard Vessel Documentation Center.

Last reported at 2018-Feb-20 13:50 UTC. Time now 2018-Feb-20 15:00 UTC.
Position N 29°24' W 094°44'.

Length 22 m; draft 3 m.

Type: Tug. MMSI: 367637490.

Date/timePositionNaut miles runAvg speedWind from/ knotsBaromVisibWave heightAir tempDewpointWater temp
2018-Feb-20 13:50N 29°24' W 094°44'0 0.0
2018-Feb-20 13:29N 29°24' W 094°44'0 0.0
2018-Feb-20 12:55N 29°24' W 094°44'0 0.0
2018-Feb-20 11:37N 29°24' W 094°44'0 0.0
2018-Feb-20 11:31N 29°24' W 094°44'0 0.0
2018-Feb-20 10:38N 29°24' W 094°44'0 0.0
2018-Feb-20 09:32N 29°24' W 094°44'0 0.0
2018-Feb-20 09:30N 29°24' W 094°44'0 0.0
2018-Feb-20 08:22N 29°24' W 094°44'0 0.0
2018-Feb-20 07:33N 29°24' W 094°44'0 0.0
2018-Feb-20 07:27N 29°24' W 094°44'0 0.0
2018-Feb-20 07:00N 29°24' W 094°44'0 0.0
2018-Feb-20 06:29N 29°24' W 094°44'1 0.1
2018-Feb-19 19:42N 29°24' W 094°45'1 3.7
2018-Feb-19 19:25N 29°24' W 094°44'0 0.0
2018-Feb-19 18:18N 29°24' W 094°44'0 0.0
2018-Feb-19 18:00N 29°24' W 094°44'0 0.0
2018-Feb-19 17:30N 29°24' W 094°44'0 0.0
2018-Feb-19 17:01N 29°24' W 094°44'0 0.0
2018-Feb-19 16:29N 29°24' W 094°44'0 0.0
2018-Feb-19 15:59N 29°24' W 094°44'0 0.0
2018-Feb-19 15:30N 29°24' W 094°44'0 0.0
2018-Feb-19 14:58N 29°24' W 094°44'0 0.0
2018-Feb-19 14:30N 29°24' W 094°44'0 0.0
2018-Feb-19 14:00N 29°24' W 094°44'0 0.0
2018-Feb-19 13:30N 29°24' W 094°44'0 0.0
2018-Feb-19 13:00N 29°24' W 094°44'0 0.0
2018-Feb-19 12:30N 29°24' W 094°44'0 0.0
2018-Feb-19 11:54N 29°24' W 094°44'0 0.0
2018-Feb-19 11:30N 29°24' W 094°44'0 0.0
2018-Feb-19 10:57N 29°24' W 094°44'0 0.0
2018-Feb-19 10:30N 29°24' W 094°44'0 0.0
2018-Feb-19 10:00N 29°24' W 094°44'0 0.0
2018-Feb-19 09:30N 29°24' W 094°44'0 0.0
2018-Feb-19 09:00N 29°24' W 094°44'0 0.0
2018-Feb-19 08:30N 29°24' W 094°44'0 0.0
2018-Feb-19 08:00N 29°24' W 094°44'0 0.0
2018-Feb-19 07:30N 29°24' W 094°44'0 0.0
2018-Feb-19 07:00N 29°24' W 094°44'0 0.0
2018-Feb-19 06:30N 29°24' W 094°44'0 0.0
2018-Feb-19 06:01N 29°24' W 094°44'0 0.0
2018-Feb-19 05:30N 29°24' W 094°44'0 0.0
2018-Feb-19 05:00N 29°24' W 094°44'0 0.0
2018-Feb-19 04:30N 29°24' W 094°44'0 0.0
2018-Feb-19 04:00N 29°24' W 094°44'0 0.0
2018-Feb-19 03:26N 29°24' W 094°44'8 1.8
2018-Feb-18 22:52N 29°29' W 094°36'7 3.2
2018-Feb-18 20:48N 29°31' W 094°30'1 3.6
2018-Feb-18 20:27N 29°32' W 094°29'4 4.8
2018-Feb-18 19:44N 29°34' W 094°25'1 4.8
2018-Feb-18 19:30N 29°35' W 094°25'2 3.5
2018-Feb-18 18:57N 29°36' W 094°23'1 2.5
2018-Feb-18 18:30N 29°36' W 094°22'0 0.0
2018-Feb-18 17:59N 29°36' W 094°22'0 0.0
2018-Feb-18 17:29N 29°36' W 094°22'0 0.0
2018-Feb-18 16:58N 29°36' W 094°22'0 0.0
2018-Feb-18 16:30N 29°36' W 094°22'0 0.0
2018-Feb-18 16:00N 29°36' W 094°22'0 0.1
2018-Feb-18 15:30N 29°36' W 094°22'0 0.0
2018-Feb-18 15:00N 29°36' W 094°22'0 0.0
2018-Feb-18 14:30N 29°36' W 094°22'0 0.0
2018-Feb-18 13:59N 29°36' W 094°22'0 0.0
2018-Feb-18 13:30N 29°36' W 094°22'0 0.0
2018-Feb-18 13:00N 29°36' W 094°22'0 0.0
2018-Feb-18 12:31N 29°36' W 094°22'0 0.0
2018-Feb-18 12:01N 29°36' W 094°22'0 0.0
2018-Feb-18 11:30N 29°36' W 094°22'0 0.0
2018-Feb-18 10:59N 29°36' W 094°22'0 0.0
2018-Feb-18 10:29N 29°36' W 094°22'0 0.0
2018-Feb-18 10:00N 29°36' W 094°22'0 0.0
2018-Feb-18 09:30N 29°36' W 094°22'0 0.0
2018-Feb-18 09:00N 29°36' W 094°22'0 0.0
2018-Feb-18 08:30N 29°36' W 094°22'0 0.0
2018-Feb-18 07:59N 29°36' W 094°22'0 0.0
2018-Feb-18 07:30N 29°36' W 094°22'0 0.0
2018-Feb-18 06:58N 29°36' W 094°22'0 0.0
2018-Feb-18 06:30N 29°36' W 094°22'0 0.0
2018-Feb-18 06:00N 29°36' W 094°22'1 0.2
2018-Feb-18 03:31N 29°37' W 094°21'0 0.0
2018-Feb-18 03:25N 29°37' W 094°21'0 0.0
2018-Feb-18 02:59N 29°37' W 094°21'0 0.0
2018-Feb-18 02:30N 29°37' W 094°21'0 0.0
2018-Feb-18 01:59N 29°37' W 094°21'0 0.0
2018-Feb-18 01:27N 29°37' W 094°21'0 0.0
2018-Feb-18 01:00N 29°37' W 094°21'0 0.0
2018-Feb-18 00:00N 29°37' W 094°21'2 4.2
2018-Feb-17 23:30N 29°38' W 094°19'2 5.0
2018-Feb-17 23:00N 29°39' W 094°17'3 5.1
2018-Feb-17 22:31N 29°40' W 094°14'3 5.1
2018-Feb-17 22:01N 29°41' W 094°11'2 4.4
2018-Feb-17 21:31N 29°42' W 094°09'2 4.7
2018-Feb-17 21:01N 29°43' W 094°07'2 4.9
2018-Feb-17 20:31N 29°45' W 094°05'2 4.2
2018-Feb-17 20:00N 29°46' W 094°03'2 4.6
2018-Feb-17 19:31N 29°48' W 094°01'2 4.7
2018-Feb-17 19:00N 29°49' W 093°59'2 4.4
2018-Feb-17 18:30N 29°51' W 093°57'4 7.3
2018-Feb-17 18:01N 29°54' W 093°54'4 7.5
2018-Feb-17 17:31N 29°57' W 093°52'2 3.5
2018-Feb-17 17:00N 29°58' W 093°51'0 0.0
2018-Feb-17 16:30N 29°58' W 093°51'0 0.0
2018-Feb-17 16:01N 29°58' W 093°51'0 0.0
2018-Feb-17 15:31N 29°58' W 093°51'0 0.0
2018-Feb-17 15:00N 29°58' W 093°51'0 0.0
2018-Feb-17 14:31N 29°58' W 093°51'0 0.0
2018-Feb-17 14:00N 29°58' W 093°51'0 0.0
2018-Feb-17 13:30N 29°58' W 093°51'0 0.0
2018-Feb-17 13:01N 29°58' W 093°51'0 0.0
2018-Feb-17 12:30N 29°58' W 093°51'0 0.0
2018-Feb-17 12:00N 29°58' W 093°51'0 0.0
2018-Feb-17 11:30N 29°58' W 093°51'0 0.0
2018-Feb-17 11:00N 29°58' W 093°51'0 0.0
2018-Feb-17 10:30N 29°58' W 093°51'0 0.0
2018-Feb-17 10:00N 29°58' W 093°51'0 0.0
2018-Feb-17 09:30N 29°58' W 093°51'0 0.0
2018-Feb-17 09:01N 29°58' W 093°51'0 0.0
2018-Feb-17 08:30N 29°58' W 093°51'0 0.0
2018-Feb-17 08:00N 29°58' W 093°51'0 0.0
2018-Feb-17 07:29N 29°58' W 093°51'0 0.0
2018-Feb-17 07:01N 29°58' W 093°51'0 0.0
2018-Feb-17 06:30N 29°58' W 093°51'0 0.0
2018-Feb-17 05:59N 29°58' W 093°51'0 0.0
2018-Feb-17 05:30N 29°58' W 093°51'0 0.0
2018-Feb-17 05:01N 29°58' W 093°51'0 0.0
2018-Feb-17 04:31N 29°58' W 093°51'0 0.0
2018-Feb-17 04:01N 29°58' W 093°51'0 0.0
2018-Feb-17 03:30N 29°58' W 093°51'0 0.0
2018-Feb-17 03:00N 29°58' W 093°51'0 0.0
2018-Feb-17 02:31N 29°58' W 093°51'0 0.0
2018-Feb-17 02:00N 29°58' W 093°51'0 0.1
2018-Feb-17 01:30N 29°58' W 093°51'2 3.4
2018-Feb-17 01:00N 29°59' W 093°49'3 6.1
2018-Feb-17 00:30N 30°00' W 093°46'3 5.9
2018-Feb-17 00:00N 30°03' W 093°44'3 5.2
2018-Feb-16 23:31N 30°04' W 093°41'3 5.2
2018-Feb-16 22:59N 30°04' W 093°38'2 4.7
2018-Feb-16 22:30N 30°04' W 093°35'2 4.4
2018-Feb-16 22:00N 30°04' W 093°33'2 4.3
2018-Feb-16 21:31N 30°04' W 093°30'2 4.4
2018-Feb-16 21:00N 30°04' W 093°28'2 4.3
2018-Feb-16 20:30N 30°04' W 093°25'2 4.1
2018-Feb-16 20:00N 30°04' W 093°23'2 3.2
2018-Feb-16 19:31N 30°04' W 093°21'2 3.4
2018-Feb-16 19:00N 30°05' W 093°20'2 4.9
2018-Feb-16 18:30N 30°07' W 093°20'3 5.6
2018-Feb-16 18:01N 30°10' W 093°19'3 6.3
2018-Feb-16 17:30N 30°12' W 093°16'1 2.6
2018-Feb-16 17:01N 30°14' W 093°16'1 1.2
2018-Feb-16 16:30N 30°14' W 093°15'0 0.2
2018-Feb-16 16:01N 30°14' W 093°15'0 0.0
2018-Feb-16 15:29N 30°14' W 093°15'0 0.0
2018-Feb-16 15:00N 30°14' W 093°15'0 0.0
2018-Feb-16 14:30N 30°14' W 093°15'0 0.0
2018-Feb-16 14:00N 30°14' W 093°15'0 0.0
2018-Feb-16 13:30N 30°14' W 093°15'0 0.0
2018-Feb-16 13:01N 30°14' W 093°15'0 0.0
2018-Feb-16 12:30N 30°14' W 093°15'0 0.0
2018-Feb-16 12:00N 30°14' W 093°15'0 0.0
2018-Feb-16 11:30N 30°14' W 093°15'0 0.0
2018-Feb-16 10:59N 30°14' W 093°15'0 0.0
2018-Feb-16 10:31N 30°14' W 093°15'0 0.0
2018-Feb-16 10:00N 30°14' W 093°15'0 0.0
2018-Feb-16 09:28N 30°14' W 093°15'0 0.0
2018-Feb-16 09:00N 30°14' W 093°15'0 0.0
2018-Feb-16 08:30N 30°14' W 093°15'0 0.0
2018-Feb-16 07:56N 30°14' W 093°15'0 0.0
2018-Feb-16 07:30N 30°14' W 093°15'0 0.0
2018-Feb-16 07:00N 30°14' W 093°15'0 0.0
2018-Feb-16 06:28N 30°14' W 093°15'0 0.0
2018-Feb-16 05:59N 30°14' W 093°15'0 0.0
2018-Feb-16 05:29N 30°14' W 093°15'0 0.0
2018-Feb-16 05:00N 30°14' W 093°15'0 0.0
2018-Feb-16 04:30N 30°14' W 093°15'0 0.0
2018-Feb-16 03:59N 30°14' W 093°15'0 0.0
2018-Feb-16 03:30N 30°14' W 093°15'0 0.0
2018-Feb-16 03:00N 30°14' W 093°15'0 0.0
2018-Feb-16 02:30N 30°14' W 093°15'0 0.0
2018-Feb-16 02:00N 30°14' W 093°15'0 0.0
2018-Feb-16 01:30N 30°14' W 093°15'0 0.0
2018-Feb-16 01:00N 30°14' W 093°15'0 0.0
2018-Feb-16 00:29N 30°14' W 093°15'0 0.0
2018-Feb-16 00:01N 30°14' W 093°15'0 0.0
2018-Feb-15 23:28N 30°14' W 093°15'0 0.0
2018-Feb-15 23:00N 30°14' W 093°15'0 0.0
2018-Feb-15 22:30N 30°14' W 093°15'0 0.0
2018-Feb-15 22:00N 30°14' W 093°15'0 0.0
2018-Feb-15 21:30N 30°14' W 093°15'1 1.2
2018-Feb-15 21:00N 30°13' W 093°16'0 0.1
2018-Feb-15 20:31N 30°13' W 093°16'0 0.0
2018-Feb-15 20:00N 30°13' W 093°16'0 0.0
2018-Feb-15 19:28N 30°13' W 093°16'0 0.0
2018-Feb-15 19:00N 30°13' W 093°16'1 1.3
2018-Feb-15 18:31N 30°13' W 093°16'1 2.3
2018-Feb-15 18:01N 30°12' W 093°16'0 0.0
2018-Feb-15 17:30N 30°12' W 093°16'0 0.1
2018-Feb-15 17:00N 30°12' W 093°16'1 2.4
2018-Feb-15 16:30N 30°13' W 093°16'0 0.7
2018-Feb-15 16:01N 30°13' W 093°16'0 0.0
2018-Feb-15 15:29N 30°13' W 093°16'0 0.0
2018-Feb-15 15:00N 30°13' W 093°16'0 0.0
2018-Feb-15 14:30N 30°13' W 093°16'0 0.0
2018-Feb-15 14:00N 30°13' W 093°16'0 0.0
2018-Feb-15 13:30N 30°13' W 093°16'0 0.0
2018-Feb-15 13:01N 30°13' W 093°16'0 0.0
2018-Feb-15 12:29N 30°13' W 093°16'0 0.0
2018-Feb-15 12:00N 30°13' W 093°16'0 0.0
2018-Feb-15 11:30N 30°13' W 093°16'0 0.0
2018-Feb-15 11:00N 30°13' W 093°16'0 0.0
2018-Feb-15 10:30N 30°13' W 093°16'0 0.0
2018-Feb-15 09:59N 30°13' W 093°16'0 0.0
2018-Feb-15 09:30N 30°13' W 093°16'0 0.0
2018-Feb-15 09:00N 30°13' W 093°16'0 0.0
2018-Feb-15 08:30N 30°13' W 093°16'0 0.0
2018-Feb-15 07:59N 30°13' W 093°16'0 0.0
2018-Feb-15 07:30N 30°13' W 093°16'0 0.0
2018-Feb-15 06:59N 30°13' W 093°16'0 0.0
2018-Feb-15 06:30N 30°13' W 093°16'0 0.0
2018-Feb-15 06:00N 30°13' W 093°16'0 0.0
2018-Feb-15 05:29N 30°13' W 093°16'0 0.0
2018-Feb-15 05:00N 30°13' W 093°16'0 0.0
2018-Feb-15 04:30N 30°13' W 093°16'0 0.0
2018-Feb-15 04:00N 30°13' W 093°16'0 0.0
2018-Feb-15 03:30N 30°13' W 093°16'0 0.0
2018-Feb-15 03:00N 30°13' W 093°16'0 0.0
2018-Feb-15 02:31N 30°13' W 093°16'0 0.0
2018-Feb-15 02:00N 30°13' W 093°16'0 0.0
2018-Feb-15 01:30N 30°13' W 093°16'0 0.0
2018-Feb-15 01:01N 30°13' W 093°16'0 0.0
2018-Feb-15 00:30N 30°13' W 093°16'0 0.0
2018-Feb-15 00:00N 30°13' W 093°16'0 0.0
2018-Feb-14 23:28N 30°13' W 093°16'0 0.0
2018-Feb-14 23:01N 30°13' W 093°16'0 0.0
2018-Feb-14 22:30N 30°13' W 093°16'0 0.0
2018-Feb-14 22:00N 30°13' W 093°16'0 0.0
2018-Feb-14 21:30N 30°13' W 093°16'0 0.0
2018-Feb-14 21:01N 30°13' W 093°16'0 0.0
2018-Feb-14 20:21N 30°13' W 093°16'0 0.0
2018-Feb-14 19:59N 30°13' W 093°16'0 0.0
2018-Feb-14 19:30N 30°13' W 093°16'0 0.0
2018-Feb-14 19:01N 30°13' W 093°16'0 0.0
2018-Feb-14 18:30N 30°13' W 093°16'0 0.0
2018-Feb-14 17:59N 30°13' W 093°16'0 0.0
2018-Feb-14 17:31N 30°13' W 093°16'0 0.0
2018-Feb-14 17:00N 30°13' W 093°16'0 0.0
2018-Feb-14 16:30N 30°13' W 093°16'0 0.0
2018-Feb-14 16:00N 30°13' W 093°16'0 0.0
2018-Feb-14 15:31N 30°13' W 093°16'0 0.0
2018-Feb-14 15:00N 30°13' W 093°16'0 0.0
2018-Feb-14 14:29N 30°13' W 093°16'0 0.0
2018-Feb-14 14:01N 30°13' W 093°16'0 0.0
2018-Feb-14 13:31N 30°13' W 093°16'0 0.0
2018-Feb-14 13:00N 30°13' W 093°16'0 0.0
2018-Feb-14 12:30N 30°13' W 093°16'0 0.0
2018-Feb-14 12:00N 30°13' W 093°16'0 0.0
2018-Feb-14 11:29N 30°13' W 093°16'0 0.0
2018-Feb-14 10:59N 30°13' W 093°16'0 0.0
2018-Feb-14 10:31N 30°13' W 093°16'0 0.0
2018-Feb-14 10:00N 30°13' W 093°16'0 0.0
2018-Feb-14 09:30N 30°13' W 093°16'0 0.0
2018-Feb-14 08:56N 30°13' W 093°16'0 0.0
2018-Feb-14 08:31N 30°13' W 093°16'0 0.0
2018-Feb-14 07:55N 30°13' W 093°16'0 0.0
2018-Feb-14 07:27N 30°13' W 093°16'0 0.0
2018-Feb-14 07:00N 30°13' W 093°16'0 0.0
2018-Feb-14 06:30N 30°13' W 093°16'0 0.0
2018-Feb-14 05:59N 30°13' W 093°16'0 0.0
2018-Feb-14 05:30N 30°13' W 093°16'0 0.0
2018-Feb-14 05:00N 30°13' W 093°16'0 0.0
2018-Feb-14 04:30N 30°13' W 093°16'0 0.0
2018-Feb-14 04:00N 30°13' W 093°16'0 0.0
2018-Feb-14 03:30N 30°13' W 093°16'0 0.0
2018-Feb-14 03:00N 30°13' W 093°16'0 0.0
2018-Feb-14 02:30N 30°13' W 093°16'0 0.0
2018-Feb-14 01:59N 30°13' W 093°16'0 0.0
2018-Feb-14 01:30N 30°13' W 093°16'0 0.0
2018-Feb-14 01:00N 30°13' W 093°16'0 0.0
2018-Feb-14 00:30N 30°13' W 093°16'0 0.0
2018-Feb-14 00:01N 30°13' W 093°16'0 0.0
2018-Feb-13 23:30N 30°13' W 093°16'0 0.0
2018-Feb-13 23:00N 30°13' W 093°16'0 0.0
2018-Feb-13 22:30N 30°13' W 093°16'0 0.0
2018-Feb-13 22:00N 30°13' W 093°16'0 0.0
2018-Feb-13 21:30N 30°13' W 093°16'0 0.0
2018-Feb-13 21:00N 30°13' W 093°16'0 0.0
2018-Feb-13 20:31N 30°13' W 093°16'0 0.0
2018-Feb-13 20:00N 30°13' W 093°16'0 0.0
2018-Feb-13 19:30N 30°13' W 093°16'0 0.0
2018-Feb-13 19:01N 30°13' W 093°16'0 0.0
2018-Feb-13 18:30N 30°13' W 093°16'0 0.0
2018-Feb-13 17:59N 30°13' W 093°16'0 0.0
2018-Feb-13 17:30N 30°13' W 093°16'1 1.9
2018-Feb-13 17:00N 30°12' W 093°16'1 1.1
2018-Feb-13 16:30N 30°12' W 093°16'1 2.7
2018-Feb-13 15:59N 30°13' W 093°16'0 0.1
2018-Feb-13 15:30N 30°13' W 093°16'0 0.0
2018-Feb-13 15:00N 30°13' W 093°16'0 0.0
2018-Feb-13 14:29N 30°13' W 093°16'0 0.0
2018-Feb-13 14:00N 30°13' W 093°16'0 0.0
2018-Feb-13 13:30N 30°13' W 093°16'0 0.0
2018-Feb-13 13:00N 30°13' W 093°16'0 0.0
2018-Feb-13 12:30N 30°13' W 093°16'0 0.0
2018-Feb-13 12:00N 30°13' W 093°16'0 0.0
2018-Feb-13 11:27N 30°13' W 093°16'0 0.0
2018-Feb-13 11:00N 30°13' W 093°16'0 0.0
2018-Feb-13 10:30N 30°13' W 093°16'0 0.0
2018-Feb-13 09:58N 30°13' W 093°16'0 0.0
2018-Feb-13 09:31N 30°13' W 093°16'0 0.0
2018-Feb-13 08:59N 30°13' W 093°16'0 0.0
2018-Feb-13 08:30N 30°13' W 093°16'0 0.0
2018-Feb-13 07:59N 30°13' W 093°16'0 0.0
2018-Feb-13 07:30N 30°13' W 093°16'0 0.0
2018-Feb-13 07:00N 30°13' W 093°16'0 0.0
2018-Feb-13 06:30N 30°13' W 093°16'0 0.0
2018-Feb-13 06:00N 30°13' W 093°16'0 0.0
2018-Feb-13 05:29N 30°13' W 093°16'0 0.0
2018-Feb-13 05:01N 30°13' W 093°16'0 0.0
2018-Feb-13 04:30N 30°13' W 093°16'0 0.0
2018-Feb-13 04:00N 30°13' W 093°16'0 0.0
2018-Feb-13 03:30N 30°13' W 093°16'0 0.0
2018-Feb-13 03:00N 30°13' W 093°16'0 0.0
2018-Feb-13 02:30N 30°13' W 093°16'0 0.0
2018-Feb-13 02:01N 30°13' W 093°16'0 0.0
2018-Feb-13 01:30N 30°13' W 093°16'0 0.0
2018-Feb-13 01:00N 30°13' W 093°16'0 0.0
2018-Feb-13 00:28N 30°13' W 093°16'0 0.0
2018-Feb-13 00:00N 30°13' W 093°16'0 0.0
2018-Feb-12 23:30N 30°13' W 093°16'0 0.0
2018-Feb-12 23:00N 30°13' W 093°16'0 0.0
2018-Feb-12 22:30N 30°13' W 093°16'0 0.0
2018-Feb-12 22:00N 30°13' W 093°16'0 0.0
2018-Feb-12 21:28N 30°13' W 093°16'0 0.0
2018-Feb-12 20:55N 30°13' W 093°16'0 0.1
2018-Feb-12 20:27N 30°13' W 093°16'0 0.1
2018-Feb-12 20:00N 30°13' W 093°16'0 0.1
2018-Feb-12 19:25N 30°13' W 093°16'0 0.0
2018-Feb-12 19:00N 30°13' W 093°16'0 0.0
2018-Feb-12 18:30N 30°13' W 093°16'0 0.0
2018-Feb-12 17:58N 30°13' W 093°16'0 0.0
2018-Feb-12 17:28N 30°13' W 093°16'0 0.0
2018-Feb-12 17:00N 30°13' W 093°16'0 0.0
2018-Feb-12 16:29N 30°13' W 093°16'0 0.0
2018-Feb-12 16:00N 30°13' W 093°16'0 0.0
2018-Feb-12 15:30N 30°13' W 093°16'0 0.0
2018-Feb-12 14:59N 30°13' W 093°16'0 0.0
2018-Feb-12 14:29N 30°13' W 093°16'0 0.0
2018-Feb-12 14:00N 30°13' W 093°16'0 0.0
2018-Feb-12 13:30N 30°13' W 093°16'0 0.0
2018-Feb-12 13:00N 30°13' W 093°16'0 0.0
2018-Feb-12 12:30N 30°13' W 093°16'0 0.0
2018-Feb-12 11:58N 30°13' W 093°16'0 0.0
2018-Feb-12 11:27N 30°13' W 093°16'0 0.0
2018-Feb-12 10:59N 30°13' W 093°16'0 0.0
2018-Feb-12 10:30N 30°13' W 093°16'0 0.0
2018-Feb-12 09:54N 30°13' W 093°16'0 0.0
2018-Feb-12 09:25N 30°13' W 093°16'0 0.0
2018-Feb-12 09:00N 30°13' W 093°16'0 0.0
2018-Feb-12 08:29N 30°13' W 093°16'0 0.0
2018-Feb-12 08:00N 30°13' W 093°16'0 0.0
2018-Feb-12 07:30N 30°13' W 093°16'0 0.0
2018-Feb-12 06:59N 30°13' W 093°16'0 0.0
2018-Feb-12 06:29N 30°13' W 093°16'0 0.0
2018-Feb-12 05:55N 30°13' W 093°16'0 0.0
2018-Feb-12 05:30N 30°13' W 093°16'0 0.0
2018-Feb-12 05:00N 30°13' W 093°16'0 0.0
2018-Feb-12 04:27N 30°13' W 093°16'0 0.0
2018-Feb-12 03:57N 30°13' W 093°16'0 0.0
2018-Feb-12 03:31N 30°13' W 093°16'0 0.0
2018-Feb-12 02:59N 30°13' W 093°16'0 0.0
2018-Feb-12 02:28N 30°13' W 093°16'0 0.0
2018-Feb-12 02:01N 30°13' W 093°16'0 0.0
2018-Feb-12 01:30N 30°13' W 093°16'0 0.0
2018-Feb-12 01:00N 30°13' W 093°16'0 0.0
2018-Feb-12 00:31N 30°13' W 093°16'0 0.0
2018-Feb-12 00:00N 30°13' W 093°16'0 0.0
2018-Feb-11 23:30N 30°13' W 093°16'0 0.0
2018-Feb-11 23:00N 30°13' W 093°16'0 0.0
2018-Feb-11 22:30N 30°13' W 093°16'0 0.0
2018-Feb-11 22:00N 30°13' W 093°16'0 0.0
2018-Feb-11 21:29N 30°13' W 093°16'0 0.0
2018-Feb-11 20:55N 30°13' W 093°16'0 0.0
2018-Feb-11 20:31N 30°13' W 093°16'0 0.0
2018-Feb-11 20:00N 30°13' W 093°16'0 0.0
2018-Feb-11 19:27N 30°13' W 093°16'0 0.0
2018-Feb-11 19:01N 30°13' W 093°16'0 0.0
2018-Feb-11 18:31N 30°13' W 093°16'0 0.0
2018-Feb-11 18:00N 30°13' W 093°16'0 0.0
2018-Feb-11 17:30N 30°13' W 093°16'0 0.0
2018-Feb-11 17:01N 30°13' W 093°16'0 0.0
2018-Feb-11 16:30N 30°13' W 093°16'0 0.0
2018-Feb-11 16:00N 30°13' W 093°16'0 0.0
2018-Feb-11 15:30N 30°13' W 093°16'0 0.0
2018-Feb-11 15:00N 30°13' W 093°16'0 0.0
2018-Feb-11 14:31N 30°13' W 093°16'0 0.0
2018-Feb-11 14:00N 30°13' W 093°16'0 0.0
2018-Feb-11 13:30N 30°13' W 093°16'0 0.0
2018-Feb-11 13:00N 30°13' W 093°16'0 0.0
2018-Feb-11 12:30N 30°13' W 093°16'0 0.0
2018-Feb-11 12:00N 30°13' W 093°16'0 0.0
2018-Feb-11 11:31N 30°13' W 093°16'0 0.0
2018-Feb-11 11:00N 30°13' W 093°16'0 0.0
2018-Feb-11 10:30N 30°13' W 093°16'0 0.0
2018-Feb-11 10:00N 30°13' W 093°16'0 0.0
2018-Feb-11 09:31N 30°13' W 093°16'0 0.0
2018-Feb-11 09:00N 30°13' W 093°16'0 0.0
2018-Feb-11 08:30N 30°13' W 093°16'0 0.0
2018-Feb-11 08:00N 30°13' W 093°16'0 0.0
2018-Feb-11 07:30N 30°13' W 093°16'0 0.0
2018-Feb-11 07:00N 30°13' W 093°16'0 0.0
2018-Feb-11 06:30N 30°13' W 093°16'0 0.0
2018-Feb-11 06:00N 30°13' W 093°16'0 0.0
2018-Feb-11 05:30N 30°13' W 093°16'0 0.0
2018-Feb-11 05:00N 30°13' W 093°16'0 0.0
2018-Feb-11 04:30N 30°13' W 093°16'0 0.0
2018-Feb-11 04:00N 30°13' W 093°16'0 0.0
2018-Feb-11 03:30N 30°13' W 093°16'0 0.0
2018-Feb-11 03:00N 30°13' W 093°16'0 0.0
2018-Feb-11 02:30N 30°13' W 093°16'0 0.0
2018-Feb-11 02:00N 30°13' W 093°16'0 0.0
2018-Feb-11 01:30N 30°13' W 093°16'0 0.0
2018-Feb-11 01:00N 30°13' W 093°16'0 0.0
2018-Feb-11 00:30N 30°13' W 093°16'0 0.0
2018-Feb-11 00:00N 30°13' W 093°16'0 0.0
2018-Feb-10 23:30N 30°13' W 093°16'0 0.0
2018-Feb-10 23:00N 30°13' W 093°16'0 0.0
2018-Feb-10 22:30N 30°13' W 093°16'0 0.0
2018-Feb-10 22:00N 30°13' W 093°16'0 0.0
2018-Feb-10 21:30N 30°13' W 093°16'0 0.0
2018-Feb-10 21:00N 30°13' W 093°16'0 0.0
2018-Feb-10 20:29N 30°13' W 093°16'0 0.0
2018-Feb-10 20:00N 30°13' W 093°16'0 0.0
2018-Feb-10 19:30N 30°13' W 093°16'0 0.0
2018-Feb-10 19:00N 30°13' W 093°16'0 0.0
2018-Feb-10 18:24N 30°13' W 093°16'0 0.0
2018-Feb-10 18:00N 30°13' W 093°16'0 0.0
2018-Feb-10 17:30N 30°13' W 093°16'0 0.0
2018-Feb-10 17:00N 30°13' W 093°16'0 0.0
2018-Feb-10 16:30N 30°13' W 093°16'0 0.0
2018-Feb-10 16:00N 30°13' W 093°16'0 0.0
2018-Feb-10 15:30N 30°13' W 093°16'0 0.0
2018-Feb-10 15:00N 30°13' W 093°16'0 0.0
2018-Feb-10 14:29N 30°13' W 093°16'0 0.0
2018-Feb-10 14:00N 30°13' W 093°16'  
Track history (hours):
 
Tides and Currents Weather Stations Pressure Air Temp Water Temp Dewpoint Dewpoint Depression Visibility Wind Speed Wind Dir Waves Ship Positions

Tutty Cenac

Owner: Cenac Marine Services, Houma, LA. More information available from US FCC via Universal Licensing System and Coast Guard Vessel Documentation Center.

Last reported at 2018-Feb-20 13:50 UTC. Time now 2018-Feb-20 15:00 UTC.
Position N 29°24' W 094°44'.

Length 22 m; draft 3 m.

Type: Tug. MMSI: 367637490.

Date/timePositionNaut miles runAvg speedWind from/ knotsBaromVisibWave heightAir tempDewpointWater temp
2018-Feb-20 13:50N 29°24' W 094°44'0 0.0
2018-Feb-20 13:29N 29°24' W 094°44'0 0.0
2018-Feb-20 12:55N 29°24' W 094°44'0 0.0
2018-Feb-20 11:37N 29°24' W 094°44'0 0.0
2018-Feb-20 11:31N 29°24' W 094°44'0 0.0
2018-Feb-20 10:38N 29°24' W 094°44'0 0.0
2018-Feb-20 09:32N 29°24' W 094°44'0 0.0
2018-Feb-20 09:30N 29°24' W 094°44'0 0.0
2018-Feb-20 08:22N 29°24' W 094°44'0 0.0
2018-Feb-20 07:33N 29°24' W 094°44'0 0.0
2018-Feb-20 07:27N 29°24' W 094°44'0 0.0
2018-Feb-20 07:00N 29°24' W 094°44'0 0.0
2018-Feb-20 06:29N 29°24' W 094°44'1 0.1
2018-Feb-19 19:42N 29°24' W 094°45'1 3.7
2018-Feb-19 19:25N 29°24' W 094°44'0 0.0
2018-Feb-19 18:18N 29°24' W 094°44'0 0.0
2018-Feb-19 18:00N 29°24' W 094°44'0 0.0
2018-Feb-19 17:30N 29°24' W 094°44'0 0.0
2018-Feb-19 17:01N 29°24' W 094°44'0 0.0
2018-Feb-19 16:29N 29°24' W 094°44'0 0.0
2018-Feb-19 15:59N 29°24' W 094°44'0 0.0
2018-Feb-19 15:30N 29°24' W 094°44'0 0.0
2018-Feb-19 14:58N 29°24' W 094°44'0 0.0
2018-Feb-19 14:30N 29°24' W 094°44'0 0.0
2018-Feb-19 14:00N 29°24' W 094°44'0 0.0
2018-Feb-19 13:30N 29°24' W 094°44'0 0.0
2018-Feb-19 13:00N 29°24' W 094°44'0 0.0
2018-Feb-19 12:30N 29°24' W 094°44'0 0.0
2018-Feb-19 11:54N 29°24' W 094°44'0 0.0
2018-Feb-19 11:30N 29°24' W 094°44'0 0.0
2018-Feb-19 10:57N 29°24' W 094°44'0 0.0
2018-Feb-19 10:30N 29°24' W 094°44'0 0.0
2018-Feb-19 10:00N 29°24' W 094°44'0 0.0
2018-Feb-19 09:30N 29°24' W 094°44'0 0.0
2018-Feb-19 09:00N 29°24' W 094°44'0 0.0
2018-Feb-19 08:30N 29°24' W 094°44'0 0.0
2018-Feb-19 08:00N 29°24' W 094°44'0 0.0
2018-Feb-19 07:30N 29°24' W 094°44'0 0.0
2018-Feb-19 07:00N 29°24' W 094°44'0 0.0
2018-Feb-19 06:30N 29°24' W 094°44'0 0.0
2018-Feb-19 06:01N 29°24' W 094°44'0 0.0
2018-Feb-19 05:30N 29°24' W 094°44'0 0.0
2018-Feb-19 05:00N 29°24' W 094°44'0 0.0
2018-Feb-19 04:30N 29°24' W 094°44'0 0.0
2018-Feb-19 04:00N 29°24' W 094°44'0 0.0
2018-Feb-19 03:26N 29°24' W 094°44'8 1.8
2018-Feb-18 22:52N 29°29' W 094°36'7 3.2
2018-Feb-18 20:48N 29°31' W 094°30'1 3.6
2018-Feb-18 20:27N 29°32' W 094°29'4 4.8
2018-Feb-18 19:44N 29°34' W 094°25'1 4.8
2018-Feb-18 19:30N 29°35' W 094°25'2 3.5
2018-Feb-18 18:57N 29°36' W 094°23'1 2.5
2018-Feb-18 18:30N 29°36' W 094°22'0 0.0
2018-Feb-18 17:59N 29°36' W 094°22'0 0.0
2018-Feb-18 17:29N 29°36' W 094°22'0 0.0
2018-Feb-18 16:58N 29°36' W 094°22'0 0.0
2018-Feb-18 16:30N 29°36' W 094°22'0 0.0
2018-Feb-18 16:00N 29°36' W 094°22'0 0.1
2018-Feb-18 15:30N 29°36' W 094°22'0 0.0
2018-Feb-18 15:00N 29°36' W 094°22'0 0.0
2018-Feb-18 14:30N 29°36' W 094°22'0 0.0
2018-Feb-18 13:59N 29°36' W 094°22'0 0.0
2018-Feb-18 13:30N 29°36' W 094°22'0 0.0
2018-Feb-18 13:00N 29°36' W 094°22'0 0.0
2018-Feb-18 12:31N 29°36' W 094°22'0 0.0
2018-Feb-18 12:01N 29°36' W 094°22'0 0.0
2018-Feb-18 11:30N 29°36' W 094°22'0 0.0
2018-Feb-18 10:59N 29°36' W 094°22'0 0.0
2018-Feb-18 10:29N 29°36' W 094°22'0 0.0
2018-Feb-18 10:00N 29°36' W 094°22'0 0.0
2018-Feb-18 09:30N 29°36' W 094°22'0 0.0
2018-Feb-18 09:00N 29°36' W 094°22'0 0.0
2018-Feb-18 08:30N 29°36' W 094°22'0 0.0
2018-Feb-18 07:59N 29°36' W 094°22'0 0.0
2018-Feb-18 07:30N 29°36' W 094°22'0 0.0
2018-Feb-18 06:58N 29°36' W 094°22'0 0.0
2018-Feb-18 06:30N 29°36' W 094°22'0 0.0
2018-Feb-18 06:00N 29°36' W 094°22'1 0.2
2018-Feb-18 03:31N 29°37' W 094°21'0 0.0
2018-Feb-18 03:25N 29°37' W 094°21'0 0.0
2018-Feb-18 02:59N 29°37' W 094°21'0 0.0
2018-Feb-18 02:30N 29°37' W 094°21'0 0.0
2018-Feb-18 01:59N 29°37' W 094°21'0 0.0
2018-Feb-18 01:27N 29°37' W 094°21'0 0.0
2018-Feb-18 01:00N 29°37' W 094°21'0 0.0
2018-Feb-18 00:00N 29°37' W 094°21'2 4.2
2018-Feb-17 23:30N 29°38' W 094°19'2 5.0
2018-Feb-17 23:00N 29°39' W 094°17'3 5.1
2018-Feb-17 22:31N 29°40' W 094°14'3 5.1
2018-Feb-17 22:01N 29°41' W 094°11'2 4.4
2018-Feb-17 21:31N 29°42' W 094°09'2 4.7
2018-Feb-17 21:01N 29°43' W 094°07'2 4.9
2018-Feb-17 20:31N 29°45' W 094°05'2 4.2
2018-Feb-17 20:00N 29°46' W 094°03'2 4.6
2018-Feb-17 19:31N 29°48' W 094°01'2 4.7
2018-Feb-17 19:00N 29°49' W 093°59'2 4.4
2018-Feb-17 18:30N 29°51' W 093°57'4 7.3
2018-Feb-17 18:01N 29°54' W 093°54'4 7.5
2018-Feb-17 17:31N 29°57' W 093°52'2 3.5
2018-Feb-17 17:00N 29°58' W 093°51'0 0.0
2018-Feb-17 16:30N 29°58' W 093°51'0 0.0
2018-Feb-17 16:01N 29°58' W 093°51'0 0.0
2018-Feb-17 15:31N 29°58' W 093°51'0 0.0
2018-Feb-17 15:00N 29°58' W 093°51'0 0.0
2018-Feb-17 14:31N 29°58' W 093°51'0 0.0
2018-Feb-17 14:00N 29°58' W 093°51'0 0.0
2018-Feb-17 13:30N 29°58' W 093°51'0 0.0
2018-Feb-17 13:01N 29°58' W 093°51'0 0.0
2018-Feb-17 12:30N 29°58' W 093°51'0 0.0
2018-Feb-17 12:00N 29°58' W 093°51'0 0.0
2018-Feb-17 11:30N 29°58' W 093°51'0 0.0
2018-Feb-17 11:00N 29°58' W 093°51'0 0.0
2018-Feb-17 10:30N 29°58' W 093°51'0 0.0
2018-Feb-17 10:00N 29°58' W 093°51'0 0.0
2018-Feb-17 09:30N 29°58' W 093°51'0 0.0
2018-Feb-17 09:01N 29°58' W 093°51'0 0.0
2018-Feb-17 08:30N 29°58' W 093°51'0 0.0
2018-Feb-17 08:00N 29°58' W 093°51'0 0.0
2018-Feb-17 07:29N 29°58' W 093°51'0 0.0
2018-Feb-17 07:01N 29°58' W 093°51'0 0.0
2018-Feb-17 06:30N 29°58' W 093°51'0 0.0
2018-Feb-17 05:59N 29°58' W 093°51'0 0.0
2018-Feb-17 05:30N 29°58' W 093°51'0 0.0
2018-Feb-17 05:01N 29°58' W 093°51'0 0.0
2018-Feb-17 04:31N 29°58' W 093°51'0 0.0
2018-Feb-17 04:01N 29°58' W 093°51'0 0.0
2018-Feb-17 03:30N 29°58' W 093°51'0 0.0
2018-Feb-17 03:00N 29°58' W 093°51'0 0.0
2018-Feb-17 02:31N 29°58' W 093°51'0 0.0
2018-Feb-17 02:00N 29°58' W 093°51'0 0.1
2018-Feb-17 01:30N 29°58' W 093°51'2 3.4
2018-Feb-17 01:00N 29°59' W 093°49'3 6.1
2018-Feb-17 00:30N 30°00' W 093°46'3 5.9
2018-Feb-17 00:00N 30°03' W 093°44'3 5.2
2018-Feb-16 23:31N 30°04' W 093°41'3 5.2
2018-Feb-16 22:59N 30°04' W 093°38'2 4.7
2018-Feb-16 22:30N 30°04' W 093°35'2 4.4
2018-Feb-16 22:00N 30°04' W 093°33'2 4.3
2018-Feb-16 21:31N 30°04' W 093°30'2 4.4
2018-Feb-16 21:00N 30°04' W 093°28'2 4.3
2018-Feb-16 20:30N 30°04' W 093°25'2 4.1
2018-Feb-16 20:00N 30°04' W 093°23'2 3.2
2018-Feb-16 19:31N 30°04' W 093°21'2 3.4
2018-Feb-16 19:00N 30°05' W 093°20'2 4.9
2018-Feb-16 18:30N 30°07' W 093°20'3 5.6
2018-Feb-16 18:01N 30°10' W 093°19'3 6.3
2018-Feb-16 17:30N 30°12' W 093°16'1 2.6
2018-Feb-16 17:01N 30°14' W 093°16'1 1.2
2018-Feb-16 16:30N 30°14' W 093°15'0 0.2
2018-Feb-16 16:01N 30°14' W 093°15'0 0.0
2018-Feb-16 15:29N 30°14' W 093°15'0 0.0
2018-Feb-16 15:00N 30°14' W 093°15'0 0.0
2018-Feb-16 14:30N 30°14' W 093°15'0 0.0
2018-Feb-16 14:00N 30°14' W 093°15'0 0.0
2018-Feb-16 13:30N 30°14' W 093°15'0 0.0
2018-Feb-16 13:01N 30°14' W 093°15'0 0.0
2018-Feb-16 12:30N 30°14' W 093°15'0 0.0
2018-Feb-16 12:00N 30°14' W 093°15'0 0.0
2018-Feb-16 11:30N 30°14' W 093°15'0 0.0
2018-Feb-16 10:59N 30°14' W 093°15'0 0.0
2018-Feb-16 10:31N 30°14' W 093°15'0 0.0
2018-Feb-16 10:00N 30°14' W 093°15'0 0.0
2018-Feb-16 09:28N 30°14' W 093°15'0 0.0
2018-Feb-16 09:00N 30°14' W 093°15'0 0.0
2018-Feb-16 08:30N 30°14' W 093°15'0 0.0
2018-Feb-16 07:56N 30°14' W 093°15'0 0.0
2018-Feb-16 07:30N 30°14' W 093°15'0 0.0
2018-Feb-16 07:00N 30°14' W 093°15'0 0.0
2018-Feb-16 06:28N 30°14' W 093°15'0 0.0
2018-Feb-16 05:59N 30°14' W 093°15'0 0.0
2018-Feb-16 05:29N 30°14' W 093°15'0 0.0
2018-Feb-16 05:00N 30°14' W 093°15'0 0.0
2018-Feb-16 04:30N 30°14' W 093°15'0 0.0
2018-Feb-16 03:59N 30°14' W 093°15'0 0.0
2018-Feb-16 03:30N 30°14' W 093°15'0 0.0
2018-Feb-16 03:00N 30°14' W 093°15'0 0.0
2018-Feb-16 02:30N 30°14' W 093°15'0 0.0
2018-Feb-16 02:00N 30°14' W 093°15'0 0.0
2018-Feb-16 01:30N 30°14' W 093°15'0 0.0
2018-Feb-16 01:00N 30°14' W 093°15'0 0.0
2018-Feb-16 00:29N 30°14' W 093°15'0 0.0
2018-Feb-16 00:01N 30°14' W 093°15'0 0.0
2018-Feb-15 23:28N 30°14' W 093°15'0 0.0
2018-Feb-15 23:00N 30°14' W 093°15'0 0.0
2018-Feb-15 22:30N 30°14' W 093°15'0 0.0
2018-Feb-15 22:00N 30°14' W 093°15'0 0.0
2018-Feb-15 21:30N 30°14' W 093°15'1 1.2
2018-Feb-15 21:00N 30°13' W 093°16'0 0.1
2018-Feb-15 20:31N 30°13' W 093°16'0 0.0
2018-Feb-15 20:00N 30°13' W 093°16'0 0.0
2018-Feb-15 19:28N 30°13' W 093°16'0 0.0
2018-Feb-15 19:00N 30°13' W 093°16'1 1.3
2018-Feb-15 18:31N 30°13' W 093°16'1 2.3
2018-Feb-15 18:01N 30°12' W 093°16'0 0.0
2018-Feb-15 17:30N 30°12' W 093°16'0 0.1
2018-Feb-15 17:00N 30°12' W 093°16'1 2.4
2018-Feb-15 16:30N 30°13' W 093°16'0 0.7
2018-Feb-15 16:01N 30°13' W 093°16'0 0.0
2018-Feb-15 15:29N 30°13' W 093°16'0 0.0
2018-Feb-15 15:00N 30°13' W 093°16'0 0.0
2018-Feb-15 14:30N 30°13' W 093°16'0 0.0
2018-Feb-15 14:00N 30°13' W 093°16'0 0.0
2018-Feb-15 13:30N 30°13' W 093°16'0 0.0
2018-Feb-15 13:01N 30°13' W 093°16'0 0.0
2018-Feb-15 12:29N 30°13' W 093°16'0 0.0
2018-Feb-15 12:00N 30°13' W 093°16'0 0.0
2018-Feb-15 11:30N 30°13' W 093°16'0 0.0
2018-Feb-15 11:00N 30°13' W 093°16'0 0.0
2018-Feb-15 10:30N 30°13' W 093°16'0 0.0
2018-Feb-15 09:59N 30°13' W 093°16'0 0.0
2018-Feb-15 09:30N 30°13' W 093°16'0 0.0
2018-Feb-15 09:00N 30°13' W 093°16'0 0.0
2018-Feb-15 08:30N 30°13' W 093°16'0 0.0
2018-Feb-15 07:59N 30°13' W 093°16'0 0.0
2018-Feb-15 07:30N 30°13' W 093°16'0 0.0
2018-Feb-15 06:59N 30°13' W 093°16'0 0.0
2018-Feb-15 06:30N 30°13' W 093°16'0 0.0
2018-Feb-15 06:00N 30°13' W 093°16'0 0.0
2018-Feb-15 05:29N 30°13' W 093°16'0 0.0
2018-Feb-15 05:00N 30°13' W 093°16'0 0.0
2018-Feb-15 04:30N 30°13' W 093°16'0 0.0
2018-Feb-15 04:00N 30°13' W 093°16'0 0.0
2018-Feb-15 03:30N 30°13' W 093°16'0 0.0
2018-Feb-15 03:00N 30°13' W 093°16'0 0.0
2018-Feb-15 02:31N 30°13' W 093°16'0 0.0
2018-Feb-15 02:00N 30°13' W 093°16'0 0.0
2018-Feb-15 01:30N 30°13' W 093°16'0 0.0
2018-Feb-15 01:01N 30°13' W 093°16'0 0.0
2018-Feb-15 00:30N 30°13' W 093°16'0 0.0
2018-Feb-15 00:00N 30°13' W 093°16'0 0.0
2018-Feb-14 23:28N 30°13' W 093°16'0 0.0
2018-Feb-14 23:01N 30°13' W 093°16'0 0.0
2018-Feb-14 22:30N 30°13' W 093°16'0 0.0
2018-Feb-14 22:00N 30°13' W 093°16'0 0.0
2018-Feb-14 21:30N 30°13' W 093°16'0 0.0
2018-Feb-14 21:01N 30°13' W 093°16'0 0.0
2018-Feb-14 20:21N 30°13' W 093°16'0 0.0
2018-Feb-14 19:59N 30°13' W 093°16'0 0.0
2018-Feb-14 19:30N 30°13' W 093°16'0 0.0
2018-Feb-14 19:01N 30°13' W 093°16'0 0.0
2018-Feb-14 18:30N 30°13' W 093°16'0 0.0
2018-Feb-14 17:59N 30°13' W 093°16'0 0.0
2018-Feb-14 17:31N 30°13' W 093°16'0 0.0
2018-Feb-14 17:00N 30°13' W 093°16'0 0.0
2018-Feb-14 16:30N 30°13' W 093°16'0 0.0
2018-Feb-14 16:00N 30°13' W 093°16'0 0.0
2018-Feb-14 15:31N 30°13' W 093°16'0 0.0
2018-Feb-14 15:00N 30°13' W 093°16'0 0.0
2018-Feb-14 14:29N 30°13' W 093°16'0 0.0
2018-Feb-14 14:01N 30°13' W 093°16'0 0.0
2018-Feb-14 13:31N 30°13' W 093°16'0 0.0
2018-Feb-14 13:00N 30°13' W 093°16'0 0.0
2018-Feb-14 12:30N 30°13' W 093°16'0 0.0
2018-Feb-14 12:00N 30°13' W 093°16'0 0.0
2018-Feb-14 11:29N 30°13' W 093°16'0 0.0
2018-Feb-14 10:59N 30°13' W 093°16'0 0.0
2018-Feb-14 10:31N 30°13' W 093°16'0 0.0
2018-Feb-14 10:00N 30°13' W 093°16'0 0.0
2018-Feb-14 09:30N 30°13' W 093°16'0 0.0
2018-Feb-14 08:56N 30°13' W 093°16'0 0.0
2018-Feb-14 08:31N 30°13' W 093°16'0 0.0
2018-Feb-14 07:55N 30°13' W 093°16'0 0.0
2018-Feb-14 07:27N 30°13' W 093°16'0 0.0
2018-Feb-14 07:00N 30°13' W 093°16'0 0.0
2018-Feb-14 06:30N 30°13' W 093°16'0 0.0
2018-Feb-14 05:59N 30°13' W 093°16'0 0.0
2018-Feb-14 05:30N 30°13' W 093°16'0 0.0
2018-Feb-14 05:00N 30°13' W 093°16'0 0.0
2018-Feb-14 04:30N 30°13' W 093°16'0 0.0
2018-Feb-14 04:00N 30°13' W 093°16'0 0.0
2018-Feb-14 03:30N 30°13' W 093°16'0 0.0
2018-Feb-14 03:00N 30°13' W 093°16'0 0.0
2018-Feb-14 02:30N 30°13' W 093°16'0 0.0
2018-Feb-14 01:59N 30°13' W 093°16'0 0.0
2018-Feb-14 01:30N 30°13' W 093°16'0 0.0
2018-Feb-14 01:00N 30°13' W 093°16'0 0.0
2018-Feb-14 00:30N 30°13' W 093°16'0 0.0
2018-Feb-14 00:01N 30°13' W 093°16'0 0.0
2018-Feb-13 23:30N 30°13' W 093°16'0 0.0
2018-Feb-13 23:00N 30°13' W 093°16'0 0.0
2018-Feb-13 22:30N 30°13' W 093°16'0 0.0
2018-Feb-13 22:00N 30°13' W 093°16'0 0.0
2018-Feb-13 21:30N 30°13' W 093°16'0 0.0
2018-Feb-13 21:00N 30°13' W 093°16'0 0.0
2018-Feb-13 20:31N 30°13' W 093°16'0 0.0
2018-Feb-13 20:00N 30°13' W 093°16'0 0.0
2018-Feb-13 19:30N 30°13' W 093°16'0 0.0
2018-Feb-13 19:01N 30°13' W 093°16'0 0.0
2018-Feb-13 18:30N 30°13' W 093°16'0 0.0
2018-Feb-13 17:59N 30°13' W 093°16'0 0.0
2018-Feb-13 17:30N 30°13' W 093°16'1 1.9
2018-Feb-13 17:00N 30°12' W 093°16'1 1.1
2018-Feb-13 16:30N 30°12' W 093°16'1 2.7
2018-Feb-13 15:59N 30°13' W 093°16'0 0.1
2018-Feb-13 15:30N 30°13' W 093°16'0 0.0
2018-Feb-13 15:00N 30°13' W 093°16'0 0.0
2018-Feb-13 14:29N 30°13' W 093°16'0 0.0
2018-Feb-13 14:00N 30°13' W 093°16'0 0.0
2018-Feb-13 13:30N 30°13' W 093°16'0 0.0
2018-Feb-13 13:00N 30°13' W 093°16'0 0.0
2018-Feb-13 12:30N 30°13' W 093°16'0 0.0
2018-Feb-13 12:00N 30°13' W 093°16'0 0.0
2018-Feb-13 11:27N 30°13' W 093°16'0 0.0
2018-Feb-13 11:00N 30°13' W 093°16'0 0.0
2018-Feb-13 10:30N 30°13' W 093°16'0 0.0
2018-Feb-13 09:58N 30°13' W 093°16'0 0.0
2018-Feb-13 09:31N 30°13' W 093°16'0 0.0
2018-Feb-13 08:59N 30°13' W 093°16'0 0.0
2018-Feb-13 08:30N 30°13' W 093°16'0 0.0
2018-Feb-13 07:59N 30°13' W 093°16'0 0.0
2018-Feb-13 07:30N 30°13' W 093°16'0 0.0
2018-Feb-13 07:00N 30°13' W 093°16'0 0.0
2018-Feb-13 06:30N 30°13' W 093°16'0 0.0
2018-Feb-13 06:00N 30°13' W 093°16'0 0.0
2018-Feb-13 05:29N 30°13' W 093°16'0 0.0
2018-Feb-13 05:01N 30°13' W 093°16'0 0.0
2018-Feb-13 04:30N 30°13' W 093°16'0 0.0
2018-Feb-13 04:00N 30°13' W 093°16'0 0.0
2018-Feb-13 03:30N 30°13' W 093°16'0 0.0
2018-Feb-13 03:00N 30°13' W 093°16'0 0.0
2018-Feb-13 02:30N 30°13' W 093°16'0 0.0
2018-Feb-13 02:01N 30°13' W 093°16'0 0.0
2018-Feb-13 01:30N 30°13' W 093°16'0 0.0
2018-Feb-13 01:00N 30°13' W 093°16'0 0.0
2018-Feb-13 00:28N 30°13' W 093°16'0 0.0
2018-Feb-13 00:00N 30°13' W 093°16'0 0.0
2018-Feb-12 23:30N 30°13' W 093°16'0 0.0
2018-Feb-12 23:00N 30°13' W 093°16'0 0.0
2018-Feb-12 22:30N 30°13' W 093°16'0 0.0
2018-Feb-12 22:00N 30°13' W 093°16'0 0.0
2018-Feb-12 21:28N 30°13' W 093°16'0 0.0
2018-Feb-12 20:55N 30°13' W 093°16'0 0.1
2018-Feb-12 20:27N 30°13' W 093°16'0 0.1
2018-Feb-12 20:00N 30°13' W 093°16'0 0.1
2018-Feb-12 19:25N 30°13' W 093°16'0 0.0
2018-Feb-12 19:00N 30°13' W 093°16'0 0.0
2018-Feb-12 18:30N 30°13' W 093°16'0 0.0
2018-Feb-12 17:58N 30°13' W 093°16'0 0.0
2018-Feb-12 17:28N 30°13' W 093°16'0 0.0
2018-Feb-12 17:00N 30°13' W 093°16'0 0.0
2018-Feb-12 16:29N 30°13' W 093°16'0 0.0
2018-Feb-12 16:00N 30°13' W 093°16'0 0.0
2018-Feb-12 15:30N 30°13' W 093°16'0 0.0
2018-Feb-12 14:59N 30°13' W 093°16'0 0.0
2018-Feb-12 14:29N 30°13' W 093°16'0 0.0
2018-Feb-12 14:00N 30°13' W 093°16'0 0.0
2018-Feb-12 13:30N 30°13' W 093°16'0 0.0
2018-Feb-12 13:00N 30°13' W 093°16'0 0.0
2018-Feb-12 12:30N 30°13' W 093°16'0 0.0
2018-Feb-12 11:58N 30°13' W 093°16'0 0.0
2018-Feb-12 11:27N 30°13' W 093°16'0 0.0
2018-Feb-12 10:59N 30°13' W 093°16'0 0.0
2018-Feb-12 10:30N 30°13' W 093°16'0 0.0
2018-Feb-12 09:54N 30°13' W 093°16'0 0.0
2018-Feb-12 09:25N 30°13' W 093°16'0 0.0
2018-Feb-12 09:00N 30°13' W 093°16'0 0.0
2018-Feb-12 08:29N 30°13' W 093°16'0 0.0
2018-Feb-12 08:00N 30°13' W 093°16'0 0.0
2018-Feb-12 07:30N 30°13' W 093°16'0 0.0
2018-Feb-12 06:59N 30°13' W 093°16'0 0.0
2018-Feb-12 06:29N 30°13' W 093°16'0 0.0
2018-Feb-12 05:55N 30°13' W 093°16'0 0.0
2018-Feb-12 05:30N 30°13' W 093°16'0 0.0
2018-Feb-12 05:00N 30°13' W 093°16'0 0.0
2018-Feb-12 04:27N 30°13' W 093°16'0 0.0
2018-Feb-12 03:57N 30°13' W 093°16'0 0.0
2018-Feb-12 03:31N 30°13' W 093°16'0 0.0
2018-Feb-12 02:59N 30°13' W 093°16'0 0.0
2018-Feb-12 02:28N 30°13' W 093°16'0 0.0
2018-Feb-12 02:01N 30°13' W 093°16'0 0.0
2018-Feb-12 01:30N 30°13' W 093°16'0 0.0
2018-Feb-12 01:00N 30°13' W 093°16'0 0.0
2018-Feb-12 00:31N 30°13' W 093°16'0 0.0
2018-Feb-12 00:00N 30°13' W 093°16'0 0.0
2018-Feb-11 23:30N 30°13' W 093°16'0 0.0
2018-Feb-11 23:00N 30°13' W 093°16'0 0.0
2018-Feb-11 22:30N 30°13' W 093°16'0 0.0
2018-Feb-11 22:00N 30°13' W 093°16'0 0.0
2018-Feb-11 21:29N 30°13' W 093°16'0 0.0
2018-Feb-11 20:55N 30°13' W 093°16'0 0.0
2018-Feb-11 20:31N 30°13' W 093°16'0 0.0
2018-Feb-11 20:00N 30°13' W 093°16'0 0.0
2018-Feb-11 19:27N 30°13' W 093°16'0 0.0
2018-Feb-11 19:01N 30°13' W 093°16'0 0.0
2018-Feb-11 18:31N 30°13' W 093°16'0 0.0
2018-Feb-11 18:00N 30°13' W 093°16'0 0.0
2018-Feb-11 17:30N 30°13' W 093°16'0 0.0
2018-Feb-11 17:01N 30°13' W 093°16'0 0.0
2018-Feb-11 16:30N 30°13' W 093°16'0 0.0
2018-Feb-11 16:00N 30°13' W 093°16'0 0.0
2018-Feb-11 15:30N 30°13' W 093°16'0 0.0
2018-Feb-11 15:00N 30°13' W 093°16'0 0.0
2018-Feb-11 14:31N 30°13' W 093°16'0 0.0
2018-Feb-11 14:00N 30°13' W 093°16'0 0.0
2018-Feb-11 13:30N 30°13' W 093°16'0 0.0
2018-Feb-11 13:00N 30°13' W 093°16'0 0.0
2018-Feb-11 12:30N 30°13' W 093°16'0 0.0
2018-Feb-11 12:00N 30°13' W 093°16'0 0.0
2018-Feb-11 11:31N 30°13' W 093°16'0 0.0
2018-Feb-11 11:00N 30°13' W 093°16'0 0.0
2018-Feb-11 10:30N 30°13' W 093°16'0 0.0
2018-Feb-11 10:00N 30°13' W 093°16'0 0.0
2018-Feb-11 09:31N 30°13' W 093°16'0 0.0
2018-Feb-11 09:00N 30°13' W 093°16'0 0.0
2018-Feb-11 08:30N 30°13' W 093°16'0 0.0
2018-Feb-11 08:00N 30°13' W 093°16'0 0.0
2018-Feb-11 07:30N 30°13' W 093°16'0 0.0
2018-Feb-11 07:00N 30°13' W 093°16'0 0.0
2018-Feb-11 06:30N 30°13' W 093°16'0 0.0
2018-Feb-11 06:00N 30°13' W 093°16'0 0.0
2018-Feb-11 05:30N 30°13' W 093°16'0 0.0
2018-Feb-11 05:00N 30°13' W 093°16'0 0.0
2018-Feb-11 04:30N 30°13' W 093°16'0 0.0
2018-Feb-11 04:00N 30°13' W 093°16'0 0.0
2018-Feb-11 03:30N 30°13' W 093°16'0 0.0
2018-Feb-11 03:00N 30°13' W 093°16'0 0.0
2018-Feb-11 02:30N 30°13' W 093°16'0 0.0
2018-Feb-11 02:00N 30°13' W 093°16'0 0.0
2018-Feb-11 01:30N 30°13' W 093°16'0 0.0
2018-Feb-11 01:00N 30°13' W 093°16'0 0.0
2018-Feb-11 00:30N 30°13' W 093°16'0 0.0
2018-Feb-11 00:00N 30°13' W 093°16'0 0.0
2018-Feb-10 23:30N 30°13' W 093°16'0 0.0
2018-Feb-10 23:00N 30°13' W 093°16'0 0.0
2018-Feb-10 22:30N 30°13' W 093°16'0 0.0
2018-Feb-10 22:00N 30°13' W 093°16'0 0.0
2018-Feb-10 21:30N 30°13' W 093°16'0 0.0
2018-Feb-10 21:00N 30°13' W 093°16'0 0.0
2018-Feb-10 20:29N 30°13' W 093°16'0 0.0
2018-Feb-10 20:00N 30°13' W 093°16'0 0.0
2018-Feb-10 19:30N 30°13' W 093°16'0 0.0
2018-Feb-10 19:00N 30°13' W 093°16'0 0.0
2018-Feb-10 18:24N 30°13' W 093°16'0 0.0
2018-Feb-10 18:00N 30°13' W 093°16'0 0.0
2018-Feb-10 17:30N 30°13' W 093°16'0 0.0
2018-Feb-10 17:00N 30°13' W 093°16'0 0.0
2018-Feb-10 16:30N 30°13' W 093°16'0 0.0
2018-Feb-10 16:00N 30°13' W 093°16'0 0.0
2018-Feb-10 15:30N 30°13' W 093°16'0 0.0
2018-Feb-10 15:00N 30°13' W 093°16'0 0.0
2018-Feb-10 14:29N 30°13' W 093°16'0 0.0
2018-Feb-10 14:00N 30°13' W 093°16'  

Dump ship's entire track history